sensor_id;sensor_type;location;lat;lon;timestamp;P1;durP1;ratioP1;P2;durP2;ratioP2
12445;SDS011;6287;50.984;7.022;2023-08-06T00:00:48;4.23;;;2.13;;
12445;SDS011;6287;50.984;7.022;2023-08-06T00:03:16;3.70;;;2.67;;
12445;SDS011;6287;50.984;7.022;2023-08-06T00:05:43;2.93;;;2.33;;
12445;SDS011;6287;50.984;7.022;2023-08-06T00:08:09;3.33;;;2.17;;
12445;SDS011;6287;50.984;7.022;2023-08-06T00:10:34;4.13;;;1.80;;
12445;SDS011;6287;50.984;7.022;2023-08-06T00:13:00;2.30;;;2.10;;
12445;SDS011;6287;50.984;7.022;2023-08-06T00:15:25;2.47;;;1.83;;
12445;SDS011;6287;50.984;7.022;2023-08-06T00:17:53;2.70;;;2.07;;
12445;SDS011;6287;50.984;7.022;2023-08-06T00:20:19;2.60;;;2.07;;
12445;SDS011;6287;50.984;7.022;2023-08-06T00:22:47;2.30;;;2.10;;
12445;SDS011;6287;50.984;7.022;2023-08-06T00:25:15;2.63;;;1.80;;
12445;SDS011;6287;50.984;7.022;2023-08-06T00:27:42;1.87;;;1.77;;
12445;SDS011;6287;50.984;7.022;2023-08-06T00:30:08;3.17;;;1.90;;
12445;SDS011;6287;50.984;7.022;2023-08-06T00:32:37;4.33;;;2.20;;
12445;SDS011;6287;50.984;7.022;2023-08-06T00:35:02;2.70;;;2.10;;
12445;SDS011;6287;50.984;7.022;2023-08-06T00:37:31;2.07;;;1.87;;
12445;SDS011;6287;50.984;7.022;2023-08-06T00:39:59;3.30;;;2.00;;
12445;SDS011;6287;50.984;7.022;2023-08-06T00:42:24;2.40;;;2.07;;
12445;SDS011;6287;50.984;7.022;2023-08-06T00:44:54;2.53;;;2.30;;
12445;SDS011;6287;50.984;7.022;2023-08-06T00:47:19;2.63;;;2.17;;
12445;SDS011;6287;50.984;7.022;2023-08-06T00:49:48;2.93;;;2.20;;
12445;SDS011;6287;50.984;7.022;2023-08-06T00:52:19;2.53;;;2.10;;
12445;SDS011;6287;50.984;7.022;2023-08-06T00:54:47;2.17;;;2.07;;
12445;SDS011;6287;50.984;7.022;2023-08-06T00:57:13;3.80;;;2.13;;
12445;SDS011;6287;50.984;7.022;2023-08-06T00:59:39;3.03;;;2.40;;
12445;SDS011;6287;50.984;7.022;2023-08-06T01:02:05;3.33;;;2.00;;
12445;SDS011;6287;50.984;7.022;2023-08-06T01:04:33;2.23;;;2.03;;
12445;SDS011;6287;50.984;7.022;2023-08-06T01:09:35;2.53;;;2.33;;
12445;SDS011;6287;50.984;7.022;2023-08-06T01:15:07;2.30;;;2.10;;
12445;SDS011;6287;50.984;7.022;2023-08-06T01:17:54;3.13;;;2.13;;
12445;SDS011;6287;50.984;7.022;2023-08-06T01:20:27;4.03;;;2.47;;
12445;SDS011;6287;50.984;7.022;2023-08-06T01:22:58;2.97;;;2.47;;
12445;SDS011;6287;50.984;7.022;2023-08-06T01:25:28;2.90;;;2.33;;
12445;SDS011;6287;50.984;7.022;2023-08-06T01:28:01;2.63;;;2.40;;
12445;SDS011;6287;50.984;7.022;2023-08-06T01:30:34;2.97;;;2.77;;
12445;SDS011;6287;50.984;7.022;2023-08-06T01:33:07;3.27;;;2.20;;
12445;SDS011;6287;50.984;7.022;2023-08-06T01:35:43;2.33;;;2.13;;
12445;SDS011;6287;50.984;7.022;2023-08-06T01:38:09;2.83;;;2.63;;
12445;SDS011;6287;50.984;7.022;2023-08-06T01:40:35;3.90;;;2.50;;
12445;SDS011;6287;50.984;7.022;2023-08-06T01:43:03;4.30;;;2.53;;
12445;SDS011;6287;50.984;7.022;2023-08-06T01:45:29;3.10;;;2.40;;
12445;SDS011;6287;50.984;7.022;2023-08-06T01:47:59;2.87;;;2.67;;
12445;SDS011;6287;50.984;7.022;2023-08-06T01:50:27;2.50;;;2.30;;
12445;SDS011;6287;50.984;7.022;2023-08-06T01:52:57;3.00;;;2.70;;
12445;SDS011;6287;50.984;7.022;2023-08-06T01:55:25;2.83;;;2.40;;
12445;SDS011;6287;50.984;7.022;2023-08-06T01:57:50;2.87;;;2.67;;
12445;SDS011;6287;50.984;7.022;2023-08-06T02:00:16;3.87;;;2.37;;
12445;SDS011;6287;50.984;7.022;2023-08-06T02:02:44;3.03;;;2.57;;
12445;SDS011;6287;50.984;7.022;2023-08-06T02:05:10;3.20;;;2.90;;
12445;SDS011;6287;50.984;7.022;2023-08-06T02:07:35;2.97;;;2.60;;
12445;SDS011;6287;50.984;7.022;2023-08-06T02:10:01;4.10;;;2.57;;
12445;SDS011;6287;50.984;7.022;2023-08-06T02:12:27;4.17;;;2.30;;
12445;SDS011;6287;50.984;7.022;2023-08-06T02:14:53;5.00;;;2.57;;
12445;SDS011;6287;50.984;7.022;2023-08-06T02:17:19;3.90;;;2.30;;
12445;SDS011;6287;50.984;7.022;2023-08-06T02:19:47;2.93;;;2.50;;
12445;SDS011;6287;50.984;7.022;2023-08-06T02:22:15;3.10;;;2.30;;
12445;SDS011;6287;50.984;7.022;2023-08-06T02:24:41;2.50;;;2.20;;
12445;SDS011;6287;50.984;7.022;2023-08-06T02:27:11;2.77;;;2.57;;
12445;SDS011;6287;50.984;7.022;2023-08-06T02:29:37;4.30;;;2.10;;
12445;SDS011;6287;50.984;7.022;2023-08-06T02:32:07;4.17;;;2.40;;
12445;SDS011;6287;50.984;7.022;2023-08-06T02:34:33;2.50;;;2.30;;
12445;SDS011;6287;50.984;7.022;2023-08-06T02:36:58;2.33;;;2.13;;
12445;SDS011;6287;50.984;7.022;2023-08-06T02:39:24;5.20;;;2.60;;
12445;SDS011;6287;50.984;7.022;2023-08-06T02:41:53;2.97;;;2.23;;
12445;SDS011;6287;50.984;7.022;2023-08-06T02:44:20;2.30;;;2.10;;
12445;SDS011;6287;50.984;7.022;2023-08-06T02:46:46;3.00;;;2.20;;
12445;SDS011;6287;50.984;7.022;2023-08-06T02:49:12;2.43;;;2.23;;
12445;SDS011;6287;50.984;7.022;2023-08-06T02:51:37;2.77;;;2.00;;
12445;SDS011;6287;50.984;7.022;2023-08-06T02:54:03;2.17;;;1.97;;
12445;SDS011;6287;50.984;7.022;2023-08-06T02:56:28;3.63;;;2.30;;
12445;SDS011;6287;50.984;7.022;2023-08-06T02:58:54;2.80;;;1.97;;
12445;SDS011;6287;50.984;7.022;2023-08-06T03:01:24;2.70;;;2.40;;
12445;SDS011;6287;50.984;7.022;2023-08-06T03:03:53;2.27;;;1.83;;
12445;SDS011;6287;50.984;7.022;2023-08-06T03:06:19;2.43;;;2.00;;
12445;SDS011;6287;50.984;7.022;2023-08-06T03:08:46;2.90;;;1.90;;
12445;SDS011;6287;50.984;7.022;2023-08-06T03:11:12;2.90;;;2.17;;
12445;SDS011;6287;50.984;7.022;2023-08-06T03:13:42;2.70;;;1.87;;
12445;SDS011;6287;50.984;7.022;2023-08-06T03:16:08;2.20;;;2.00;;
12445;SDS011;6287;50.984;7.022;2023-08-06T03:18:34;2.47;;;2.03;;
12445;SDS011;6287;50.984;7.022;2023-08-06T03:21:02;2.00;;;1.80;;
12445;SDS011;6287;50.984;7.022;2023-08-06T03:23:27;2.03;;;1.93;;
12445;SDS011;6287;50.984;7.022;2023-08-06T03:25:53;2.30;;;2.10;;
12445;SDS011;6287;50.984;7.022;2023-08-06T03:28:21;2.20;;;2.00;;
12445;SDS011;6287;50.984;7.022;2023-08-06T03:30:50;2.70;;;1.83;;
12445;SDS011;6287;50.984;7.022;2023-08-06T03:33:26;3.00;;;2.13;;
12445;SDS011;6287;50.984;7.022;2023-08-06T03:35:55;3.73;;;2.67;;
12445;SDS011;6287;50.984;7.022;2023-08-06T03:38:23;2.27;;;2.07;;
12445;SDS011;6287;50.984;7.022;2023-08-06T03:40:48;2.60;;;2.10;;
12445;SDS011;6287;50.984;7.022;2023-08-06T03:43:14;2.97;;;2.30;;
12445;SDS011;6287;50.984;7.022;2023-08-06T03:45:40;2.10;;;1.90;;
12445;SDS011;6287;50.984;7.022;2023-08-06T03:48:07;2.10;;;1.90;;
12445;SDS011;6287;50.984;7.022;2023-08-06T03:50:37;2.30;;;2.10;;
12445;SDS011;6287;50.984;7.022;2023-08-06T03:53:06;2.40;;;2.17;;
12445;SDS011;6287;50.984;7.022;2023-08-06T03:55:36;2.10;;;1.90;;
12445;SDS011;6287;50.984;7.022;2023-08-06T03:58:04;2.50;;;2.30;;
12445;SDS011;6287;50.984;7.022;2023-08-06T04:00:37;2.17;;;1.97;;
12445;SDS011;6287;50.984;7.022;2023-08-06T04:03:05;2.47;;;2.27;;
12445;SDS011;6287;50.984;7.022;2023-08-06T04:05:31;2.20;;;2.00;;
12445;SDS011;6287;50.984;7.022;2023-08-06T04:07:57;3.00;;;2.37;;
12445;SDS011;6287;50.984;7.022;2023-08-06T04:10:23;2.23;;;2.03;;
12445;SDS011;6287;50.984;7.022;2023-08-06T04:12:48;4.13;;;2.33;;
12445;SDS011;6287;50.984;7.022;2023-08-06T04:15:14;3.13;;;2.20;;
12445;SDS011;6287;50.984;7.022;2023-08-06T04:17:40;2.27;;;1.90;;
12445;SDS011;6287;50.984;7.022;2023-08-06T04:20:06;2.57;;;1.57;;
12445;SDS011;6287;50.984;7.022;2023-08-06T04:22:34;2.40;;;1.70;;
12445;SDS011;6287;50.984;7.022;2023-08-06T04:25:02;1.90;;;1.77;;
12445;SDS011;6287;50.984;7.022;2023-08-06T04:27:28;2.17;;;1.57;;
12445;SDS011;6287;50.984;7.022;2023-08-06T04:29:53;1.97;;;1.87;;
12445;SDS011;6287;50.984;7.022;2023-08-06T04:32:19;2.00;;;1.67;;
12445;SDS011;6287;50.984;7.022;2023-08-06T04:34:45;2.57;;;1.70;;
12445;SDS011;6287;50.984;7.022;2023-08-06T04:37:11;2.40;;;1.67;;
12445;SDS011;6287;50.984;7.022;2023-08-06T04:39:37;2.10;;;1.87;;
12445;SDS011;6287;50.984;7.022;2023-08-06T04:42:03;4.07;;;1.77;;
12445;SDS011;6287;50.984;7.022;2023-08-06T04:44:29;1.90;;;1.67;;
12445;SDS011;6287;50.984;7.022;2023-08-06T04:46:57;2.60;;;1.77;;
12445;SDS011;6287;50.984;7.022;2023-08-06T04:49:22;2.40;;;1.90;;
12445;SDS011;6287;50.984;7.022;2023-08-06T04:51:52;3.13;;;1.73;;
12445;SDS011;6287;50.984;7.022;2023-08-06T04:54:18;3.67;;;1.97;;
12445;SDS011;6287;50.984;7.022;2023-08-06T04:56:43;2.27;;;1.63;;
12445;SDS011;6287;50.984;7.022;2023-08-06T04:59:11;2.10;;;1.60;;
12445;SDS011;6287;50.984;7.022;2023-08-06T05:01:44;1.97;;;1.80;;
12445;SDS011;6287;50.984;7.022;2023-08-06T05:04:11;1.57;;;1.47;;
12445;SDS011;6287;50.984;7.022;2023-08-06T05:06:37;1.97;;;1.60;;
12445;SDS011;6287;50.984;7.022;2023-08-06T05:09:08;3.10;;;1.83;;
12445;SDS011;6287;50.984;7.022;2023-08-06T05:11:36;2.10;;;1.90;;
12445;SDS011;6287;50.984;7.022;2023-08-06T05:14:02;2.70;;;1.80;;
12445;SDS011;6287;50.984;7.022;2023-08-06T05:16:29;2.33;;;1.63;;
12445;SDS011;6287;50.984;7.022;2023-08-06T05:18:57;1.90;;;1.80;;
12445;SDS011;6287;50.984;7.022;2023-08-06T05:21:23;2.47;;;1.97;;
12445;SDS011;6287;50.984;7.022;2023-08-06T05:23:52;1.93;;;1.70;;
12445;SDS011;6287;50.984;7.022;2023-08-06T05:26:17;1.83;;;1.73;;
12445;SDS011;6287;50.984;7.022;2023-08-06T05:28:44;2.57;;;1.80;;
12445;SDS011;6287;50.984;7.022;2023-08-06T05:31:12;1.80;;;1.53;;
12445;SDS011;6287;50.984;7.022;2023-08-06T05:33:40;1.70;;;1.60;;
12445;SDS011;6287;50.984;7.022;2023-08-06T05:36:09;3.47;;;1.80;;
12445;SDS011;6287;50.984;7.022;2023-08-06T05:38:36;2.67;;;1.80;;
12445;SDS011;6287;50.984;7.022;2023-08-06T05:41:02;4.10;;;1.60;;
12445;SDS011;6287;50.984;7.022;2023-08-06T05:43:28;3.60;;;1.50;;
12445;SDS011;6287;50.984;7.022;2023-08-06T05:45:54;3.77;;;2.10;;
12445;SDS011;6287;50.984;7.022;2023-08-06T05:48:20;2.43;;;1.70;;
12445;SDS011;6287;50.984;7.022;2023-08-06T05:50:50;3.90;;;1.63;;
12445;SDS011;6287;50.984;7.022;2023-08-06T05:53:16;3.87;;;1.97;;
12445;SDS011;6287;50.984;7.022;2023-08-06T05:55:47;1.80;;;1.70;;
12445;SDS011;6287;50.984;7.022;2023-08-06T05:58:15;2.83;;;1.60;;
12445;SDS011;6287;50.984;7.022;2023-08-06T06:00:41;1.80;;;1.70;;
12445;SDS011;6287;50.984;7.022;2023-08-06T06:03:06;2.87;;;1.80;;
12445;SDS011;6287;50.984;7.022;2023-08-06T06:05:32;3.43;;;1.63;;
12445;SDS011;6287;50.984;7.022;2023-08-06T06:07:57;3.33;;;1.90;;
12445;SDS011;6287;50.984;7.022;2023-08-06T06:10:23;1.53;;;1.43;;
12445;SDS011;6287;50.984;7.022;2023-08-06T06:12:48;2.87;;;1.90;;
12445;SDS011;6287;50.984;7.022;2023-08-06T06:15:16;3.10;;;1.60;;
12445;SDS011;6287;50.984;7.022;2023-08-06T06:17:47;1.87;;;1.40;;
12445;SDS011;6287;50.984;7.022;2023-08-06T06:20:17;1.70;;;1.57;;
12445;SDS011;6287;50.984;7.022;2023-08-06T06:22:43;2.60;;;1.80;;
12445;SDS011;6287;50.984;7.022;2023-08-06T06:25:09;2.40;;;1.50;;
12445;SDS011;6287;50.984;7.022;2023-08-06T06:27:35;1.50;;;1.40;;
12445;SDS011;6287;50.984;7.022;2023-08-06T06:30:00;2.90;;;1.90;;
12445;SDS011;6287;50.984;7.022;2023-08-06T06:32:26;1.60;;;1.50;;
12445;SDS011;6287;50.984;7.022;2023-08-06T06:34:52;2.53;;;1.50;;
12445;SDS011;6287;50.984;7.022;2023-08-06T06:37:19;1.60;;;1.50;;
12445;SDS011;6287;50.984;7.022;2023-08-06T06:39:45;1.70;;;1.53;;
12445;SDS011;6287;50.984;7.022;2023-08-06T06:42:11;1.87;;;1.77;;
12445;SDS011;6287;50.984;7.022;2023-08-06T06:44:39;1.93;;;1.47;;
12445;SDS011;6287;50.984;7.022;2023-08-06T06:47:07;2.73;;;1.90;;
12445;SDS011;6287;50.984;7.022;2023-08-06T06:49:34;2.50;;;1.63;;
12445;SDS011;6287;50.984;7.022;2023-08-06T06:52:01;1.73;;;1.63;;
12445;SDS011;6287;50.984;7.022;2023-08-06T06:54:27;1.27;;;1.20;;
12445;SDS011;6287;50.984;7.022;2023-08-06T06:56:56;2.13;;;1.40;;
12445;SDS011;6287;50.984;7.022;2023-08-06T06:59:23;1.93;;;1.43;;
12445;SDS011;6287;50.984;7.022;2023-08-06T07:01:49;1.83;;;1.50;;
12445;SDS011;6287;50.984;7.022;2023-08-06T07:04:23;1.50;;;1.40;;
12445;SDS011;6287;50.984;7.022;2023-08-06T07:06:53;1.90;;;1.50;;
12445;SDS011;6287;50.984;7.022;2023-08-06T07:09:21;2.03;;;1.27;;
12445;SDS011;6287;50.984;7.022;2023-08-06T07:11:48;2.23;;;1.40;;
12445;SDS011;6287;50.984;7.022;2023-08-06T07:14:14;2.57;;;1.10;;
12445;SDS011;6287;50.984;7.022;2023-08-06T07:16:42;2.30;;;1.30;;
12445;SDS011;6287;50.984;7.022;2023-08-06T07:19:07;0.97;;;0.93;;
12445;SDS011;6287;50.984;7.022;2023-08-06T07:21:37;0.97;;;0.93;;
12445;SDS011;6287;50.984;7.022;2023-08-06T07:24:03;1.20;;;1.10;;
12445;SDS011;6287;50.984;7.022;2023-08-06T07:26:29;1.10;;;1.10;;
12445;SDS011;6287;50.984;7.022;2023-08-06T07:28:54;0.70;;;0.70;;
12445;SDS011;6287;50.984;7.022;2023-08-06T07:31:20;0.90;;;0.90;;
12445;SDS011;6287;50.984;7.022;2023-08-06T07:33:47;1.13;;;0.90;;
12445;SDS011;6287;50.984;7.022;2023-08-06T07:36:14;0.97;;;0.97;;
12445;SDS011;6287;50.984;7.022;2023-08-06T07:38:40;2.00;;;0.80;;
12445;SDS011;6287;50.984;7.022;2023-08-06T07:41:06;0.60;;;0.60;;
12445;SDS011;6287;50.984;7.022;2023-08-06T07:43:34;1.70;;;0.80;;
12445;SDS011;6287;50.984;7.022;2023-08-06T07:46:02;0.67;;;0.63;;
12445;SDS011;6287;50.984;7.022;2023-08-06T07:48:30;0.60;;;0.60;;
12445;SDS011;6287;50.984;7.022;2023-08-06T07:50:56;1.47;;;0.70;;
12445;SDS011;6287;50.984;7.022;2023-08-06T07:53:25;0.67;;;0.67;;
12445;SDS011;6287;50.984;7.022;2023-08-06T07:55:56;0.63;;;0.63;;
12445;SDS011;6287;50.984;7.022;2023-08-06T07:58:23;0.60;;;0.60;;
12445;SDS011;6287;50.984;7.022;2023-08-06T08:00:50;0.40;;;0.40;;
12445;SDS011;6287;50.984;7.022;2023-08-06T08:03:18;0.63;;;0.63;;
12445;SDS011;6287;50.984;7.022;2023-08-06T08:05:44;1.57;;;0.70;;
12445;SDS011;6287;50.984;7.022;2023-08-06T08:08:11;1.38;;;0.60;;
12445;SDS011;6287;50.984;7.022;2023-08-06T08:10:37;0.70;;;0.70;;
12445;SDS011;6287;50.984;7.022;2023-08-06T08:13:03;0.83;;;0.50;;
12445;SDS011;6287;50.984;7.022;2023-08-06T08:15:31;0.60;;;0.43;;
12445;SDS011;6287;50.984;7.022;2023-08-06T08:17:57;0.57;;;0.57;;
12445;SDS011;6287;50.984;7.022;2023-08-06T08:20:24;0.60;;;0.60;;
12445;SDS011;6287;50.984;7.022;2023-08-06T08:22:49;0.40;;;0.40;;
12445;SDS011;6287;50.984;7.022;2023-08-06T08:25:17;0.43;;;0.40;;
12445;SDS011;6287;50.984;7.022;2023-08-06T08:27:45;0.90;;;0.40;;
12445;SDS011;6287;50.984;7.022;2023-08-06T08:30:11;0.68;;;0.68;;
12445;SDS011;6287;50.984;7.022;2023-08-06T08:32:36;0.30;;;0.30;;
12445;SDS011;6287;50.984;7.022;2023-08-06T08:35:02;0.50;;;0.50;;
12445;SDS011;6287;50.984;7.022;2023-08-06T08:37:29;0.60;;;0.60;;
12445;SDS011;6287;50.984;7.022;2023-08-06T08:39:57;0.60;;;0.60;;
12445;SDS011;6287;50.984;7.022;2023-08-06T08:42:25;1.07;;;0.50;;
12445;SDS011;6287;50.984;7.022;2023-08-06T08:44:51;0.40;;;0.40;;
12445;SDS011;6287;50.984;7.022;2023-08-06T08:47:18;0.70;;;0.70;;
12445;SDS011;6287;50.984;7.022;2023-08-06T08:49:44;0.40;;;0.40;;
12445;SDS011;6287;50.984;7.022;2023-08-06T08:52:11;0.70;;;0.70;;
12445;SDS011;6287;50.984;7.022;2023-08-06T08:54:42;0.70;;;0.70;;
12445;SDS011;6287;50.984;7.022;2023-08-06T08:57:19;0.80;;;0.80;;
12445;SDS011;6287;50.984;7.022;2023-08-06T08:59:45;0.70;;;0.70;;
12445;SDS011;6287;50.984;7.022;2023-08-06T09:02:13;0.60;;;0.60;;
12445;SDS011;6287;50.984;7.022;2023-08-06T09:04:40;0.60;;;0.60;;
12445;SDS011;6287;50.984;7.022;2023-08-06T09:07:08;0.65;;;0.65;;
12445;SDS011;6287;50.984;7.022;2023-08-06T09:09:38;0.77;;;0.77;;
12445;SDS011;6287;50.984;7.022;2023-08-06T09:12:16;0.80;;;0.80;;
12445;SDS011;6287;50.984;7.022;2023-08-06T09:14:44;0.77;;;0.77;;
12445;SDS011;6287;50.984;7.022;2023-08-06T09:17:10;0.80;;;0.80;;
12445;SDS011;6287;50.984;7.022;2023-08-06T09:19:39;1.77;;;1.38;;
12445;SDS011;6287;50.984;7.022;2023-08-06T09:22:12;1.55;;;1.10;;
12445;SDS011;6287;50.984;7.022;2023-08-06T09:24:41;1.80;;;1.50;;
12445;SDS011;6287;50.984;7.022;2023-08-06T09:27:16;2.08;;;1.88;;
12445;SDS011;6287;50.984;7.022;2023-08-06T09:29:43;2.33;;;2.17;;
12445;SDS011;6287;50.984;7.022;2023-08-06T09:32:10;2.40;;;2.30;;
12445;SDS011;6287;50.984;7.022;2023-08-06T09:34:41;2.65;;;2.45;;
12445;SDS011;6287;50.984;7.022;2023-08-06T09:37:11;1.98;;;1.88;;
12445;SDS011;6287;50.984;7.022;2023-08-06T09:39:38;2.28;;;2.08;;
12445;SDS011;6287;50.984;7.022;2023-08-06T09:42:06;2.42;;;2.22;;
12445;SDS011;6287;50.984;7.022;2023-08-06T09:44:33;2.28;;;2.17;;
12445;SDS011;6287;50.984;7.022;2023-08-06T09:47:02;4.32;;;2.58;;
12445;SDS011;6287;50.984;7.022;2023-08-06T09:52:02;3.40;;;3.00;;
12445;SDS011;6287;50.984;7.022;2023-08-06T09:54:31;3.40;;;3.10;;
12445;SDS011;6287;50.984;7.022;2023-08-06T09:56:59;3.63;;;3.33;;
12445;SDS011;6287;50.984;7.022;2023-08-06T09:59:27;3.10;;;2.83;;
12445;SDS011;6287;50.984;7.022;2023-08-06T10:01:59;4.00;;;3.40;;
12445;SDS011;6287;50.984;7.022;2023-08-06T10:04:28;4.15;;;3.50;;
12445;SDS011;6287;50.984;7.022;2023-08-06T10:06:56;3.03;;;2.83;;
12445;SDS011;6287;50.984;7.022;2023-08-06T10:09:26;3.30;;;3.00;;
12445;SDS011;6287;50.984;7.022;2023-08-06T10:11:53;3.50;;;3.20;;
12445;SDS011;6287;50.984;7.022;2023-08-06T10:14:24;3.08;;;2.80;;
12445;SDS011;6287;50.984;7.022;2023-08-06T10:16:56;3.25;;;2.95;;
12445;SDS011;6287;50.984;7.022;2023-08-06T10:19:23;3.63;;;2.38;;
12445;SDS011;6287;50.984;7.022;2023-08-06T10:24:58;0.73;;;0.73;;
12445;SDS011;6287;50.984;7.022;2023-08-06T10:30:36;0.40;;;0.40;;
12445;SDS011;6287;50.984;7.022;2023-08-06T10:33:09;1.43;;;0.30;;
12445;SDS011;6287;50.984;7.022;2023-08-06T10:35:40;0.30;;;0.30;;
12445;SDS011;6287;50.984;7.022;2023-08-06T10:40:47;0.50;;;0.50;;
12445;SDS011;6287;50.984;7.022;2023-08-06T10:46:00;0.30;;;0.30;;
12445;SDS011;6287;50.984;7.022;2023-08-06T10:51:04;0.87;;;0.50;;
12445;SDS011;6287;50.984;7.022;2023-08-06T10:53:45;0.77;;;0.70;;
12445;SDS011;6287;50.984;7.022;2023-08-06T10:58:40;1.33;;;0.57;;
12445;SDS011;6287;50.984;7.022;2023-08-06T11:01:09;0.70;;;0.70;;
12445;SDS011;6287;50.984;7.022;2023-08-06T11:03:35;0.70;;;0.70;;
12445;SDS011;6287;50.984;7.022;2023-08-06T11:06:02;0.70;;;0.70;;
12445;SDS011;6287;50.984;7.022;2023-08-06T11:08:35;1.00;;;1.00;;
12445;SDS011;6287;50.984;7.022;2023-08-06T11:11:15;2.03;;;1.13;;
12445;SDS011;6287;50.984;7.022;2023-08-06T11:13:47;0.83;;;0.83;;
12445;SDS011;6287;50.984;7.022;2023-08-06T11:16:23;1.50;;;1.20;;
12445;SDS011;6287;50.984;7.022;2023-08-06T11:18:51;1.83;;;1.10;;
12445;SDS011;6287;50.984;7.022;2023-08-06T11:21:21;2.23;;;1.30;;
12445;SDS011;6287;50.984;7.022;2023-08-06T11:23:51;1.53;;;1.30;;
12445;SDS011;6287;50.984;7.022;2023-08-06T11:26:21;1.87;;;1.27;;
12445;SDS011;6287;50.984;7.022;2023-08-06T11:28:48;3.30;;;1.27;;
12445;SDS011;6287;50.984;7.022;2023-08-06T11:31:20;1.83;;;1.73;;
12445;SDS011;6287;50.984;7.022;2023-08-06T11:33:46;2.20;;;1.30;;
12445;SDS011;6287;50.984;7.022;2023-08-06T11:36:14;2.50;;;1.50;;
12445;SDS011;6287;50.984;7.022;2023-08-06T11:38:40;2.70;;;1.50;;
12445;SDS011;6287;50.984;7.022;2023-08-06T11:41:06;3.07;;;1.53;;
12445;SDS011;6287;50.984;7.022;2023-08-06T11:43:32;3.33;;;1.60;;
12445;SDS011;6287;50.984;7.022;2023-08-06T11:46:02;1.97;;;1.50;;
12445;SDS011;6287;50.984;7.022;2023-08-06T11:48:27;3.43;;;1.60;;
12445;SDS011;6287;50.984;7.022;2023-08-06T11:50:56;1.90;;;1.60;;
12445;SDS011;6287;50.984;7.022;2023-08-06T11:53:27;3.80;;;1.90;;
12445;SDS011;6287;50.984;7.022;2023-08-06T11:55:52;1.80;;;1.70;;
12445;SDS011;6287;50.984;7.022;2023-08-06T11:58:21;2.10;;;1.80;;
12445;SDS011;6287;50.984;7.022;2023-08-06T12:00:53;4.27;;;1.80;;
12445;SDS011;6287;50.984;7.022;2023-08-06T12:03:21;2.60;;;1.80;;
12445;SDS011;6287;50.984;7.022;2023-08-06T12:05:53;4.37;;;2.00;;
12445;SDS011;6287;50.984;7.022;2023-08-06T12:08:19;2.73;;;1.80;;
12445;SDS011;6287;50.984;7.022;2023-08-06T12:10:44;4.93;;;1.60;;
12445;SDS011;6287;50.984;7.022;2023-08-06T12:13:11;1.67;;;1.40;;
12445;SDS011;6287;50.984;7.022;2023-08-06T12:15:38;1.67;;;1.57;;
12445;SDS011;6287;50.984;7.022;2023-08-06T12:18:05;1.30;;;1.20;;
12445;SDS011;6287;50.984;7.022;2023-08-06T12:20:33;3.07;;;1.50;;
12445;SDS011;6287;50.984;7.022;2023-08-06T12:23:06;1.50;;;1.40;;
12445;SDS011;6287;50.984;7.022;2023-08-06T12:25:32;5.53;;;1.50;;
12445;SDS011;6287;50.984;7.022;2023-08-06T12:27:58;3.10;;;1.63;;
12445;SDS011;6287;50.984;7.022;2023-08-06T12:30:25;1.23;;;1.13;;
12445;SDS011;6287;50.984;7.022;2023-08-06T12:32:51;3.47;;;1.50;;
12445;SDS011;6287;50.984;7.022;2023-08-06T12:35:17;1.43;;;1.10;;
12445;SDS011;6287;50.984;7.022;2023-08-06T12:37:45;1.97;;;1.40;;
12445;SDS011;6287;50.984;7.022;2023-08-06T12:40:11;1.30;;;1.10;;
12445;SDS011;6287;50.984;7.022;2023-08-06T12:42:37;2.50;;;1.23;;
12445;SDS011;6287;50.984;7.022;2023-08-06T12:45:05;1.83;;;1.27;;
12445;SDS011;6287;50.984;7.022;2023-08-06T12:47:31;1.33;;;1.23;;
12445;SDS011;6287;50.984;7.022;2023-08-06T12:49:56;1.77;;;1.67;;
12445;SDS011;6287;50.984;7.022;2023-08-06T12:52:22;4.27;;;1.73;;
12445;SDS011;6287;50.984;7.022;2023-08-06T12:54:50;2.40;;;2.20;;
12445;SDS011;6287;50.984;7.022;2023-08-06T12:57:18;1.63;;;1.50;;
12445;SDS011;6287;50.984;7.022;2023-08-06T12:59:46;1.93;;;1.47;;
12445;SDS011;6287;50.984;7.022;2023-08-06T13:02:12;2.93;;;1.60;;
12445;SDS011;6287;50.984;7.022;2023-08-06T13:04:38;2.33;;;1.43;;
12445;SDS011;6287;50.984;7.022;2023-08-06T13:07:04;1.53;;;1.20;;
12445;SDS011;6287;50.984;7.022;2023-08-06T13:09:34;1.17;;;1.10;;
12445;SDS011;6287;50.984;7.022;2023-08-06T13:12:00;2.83;;;1.23;;
12445;SDS011;6287;50.984;7.022;2023-08-06T13:14:30;2.93;;;1.20;;
12445;SDS011;6287;50.984;7.022;2023-08-06T13:17:01;1.60;;;1.17;;
12445;SDS011;6287;50.984;7.022;2023-08-06T13:19:27;1.93;;;1.33;;
12445;SDS011;6287;50.984;7.022;2023-08-06T13:24:27;2.50;;;1.37;;
12445;SDS011;6287;50.984;7.022;2023-08-06T13:26:53;1.13;;;1.03;;
12445;SDS011;6287;50.984;7.022;2023-08-06T13:29:18;1.70;;;1.60;;
12445;SDS011;6287;50.984;7.022;2023-08-06T13:31:44;2.20;;;1.20;;
12445;SDS011;6287;50.984;7.022;2023-08-06T13:34:09;2.60;;;1.37;;
12445;SDS011;6287;50.984;7.022;2023-08-06T13:36:38;3.43;;;1.63;;
12445;SDS011;6287;50.984;7.022;2023-08-06T13:39:06;3.17;;;1.57;;
12445;SDS011;6287;50.984;7.022;2023-08-06T13:41:31;2.83;;;1.40;;
12445;SDS011;6287;50.984;7.022;2023-08-06T13:43:57;1.37;;;1.27;;
12445;SDS011;6287;50.984;7.022;2023-08-06T13:46:27;1.67;;;1.27;;
12445;SDS011;6287;50.984;7.022;2023-08-06T13:48:58;2.17;;;1.40;;
12445;SDS011;6287;50.984;7.022;2023-08-06T13:51:23;2.27;;;1.23;;
12445;SDS011;6287;50.984;7.022;2023-08-06T13:53:52;2.17;;;1.40;;
12445;SDS011;6287;50.984;7.022;2023-08-06T13:56:19;1.23;;;1.10;;
12445;SDS011;6287;50.984;7.022;2023-08-06T13:58:44;3.63;;;1.33;;
12445;SDS011;6287;50.984;7.022;2023-08-06T14:01:11;1.40;;;1.30;;
12445;SDS011;6287;50.984;7.022;2023-08-06T14:03:36;1.90;;;1.70;;
12445;SDS011;6287;50.984;7.022;2023-08-06T14:06:05;2.17;;;1.87;;
12445;SDS011;6287;50.984;7.022;2023-08-06T14:08:36;3.37;;;1.60;;
12445;SDS011;6287;50.984;7.022;2023-08-06T14:11:01;2.43;;;1.97;;
12445;SDS011;6287;50.984;7.022;2023-08-06T14:13:27;2.10;;;1.90;;
12445;SDS011;6287;50.984;7.022;2023-08-06T14:15:56;1.83;;;1.70;;
12445;SDS011;6287;50.984;7.022;2023-08-06T14:18:21;3.50;;;1.80;;
12445;SDS011;6287;50.984;7.022;2023-08-06T14:20:47;2.07;;;1.70;;
12445;SDS011;6287;50.984;7.022;2023-08-06T14:23:12;3.00;;;1.97;;
12445;SDS011;6287;50.984;7.022;2023-08-06T14:25:41;2.63;;;2.00;;
12445;SDS011;6287;50.984;7.022;2023-08-06T14:28:07;2.03;;;1.73;;
12445;SDS011;6287;50.984;7.022;2023-08-06T14:30:35;2.80;;;2.03;;
12445;SDS011;6287;50.984;7.022;2023-08-06T14:33:02;1.60;;;1.40;;
12445;SDS011;6287;50.984;7.022;2023-08-06T14:35:35;2.57;;;1.10;;
12445;SDS011;6287;50.984;7.022;2023-08-06T14:38:01;2.00;;;1.00;;
12445;SDS011;6287;50.984;7.022;2023-08-06T14:40:27;1.87;;;1.10;;
12445;SDS011;6287;50.984;7.022;2023-08-06T14:42:59;1.83;;;1.13;;
12445;SDS011;6287;50.984;7.022;2023-08-06T14:45:26;2.37;;;1.20;;
12445;SDS011;6287;50.984;7.022;2023-08-06T14:47:52;2.63;;;1.30;;
12445;SDS011;6287;50.984;7.022;2023-08-06T14:50:19;2.80;;;1.13;;
12445;SDS011;6287;50.984;7.022;2023-08-06T14:52:47;1.23;;;0.90;;
12445;SDS011;6287;50.984;7.022;2023-08-06T14:55:24;6.37;;;1.40;;
12445;SDS011;6287;50.984;7.022;2023-08-06T14:57:50;2.23;;;1.30;;
12445;SDS011;6287;50.984;7.022;2023-08-06T15:00:19;3.07;;;1.20;;
12445;SDS011;6287;50.984;7.022;2023-08-06T15:02:47;2.27;;;1.00;;
12445;SDS011;6287;50.984;7.022;2023-08-06T15:05:13;2.93;;;1.30;;
12445;SDS011;6287;50.984;7.022;2023-08-06T15:07:39;4.27;;;1.30;;
12445;SDS011;6287;50.984;7.022;2023-08-06T15:10:07;3.73;;;1.17;;
12445;SDS011;6287;50.984;7.022;2023-08-06T15:12:33;1.60;;;1.20;;
12445;SDS011;6287;50.984;7.022;2023-08-06T15:15:01;1.20;;;1.07;;
12445;SDS011;6287;50.984;7.022;2023-08-06T15:17:32;2.20;;;0.90;;
12445;SDS011;6287;50.984;7.022;2023-08-06T15:20:00;1.50;;;1.00;;
12445;SDS011;6287;50.984;7.022;2023-08-06T15:22:28;2.33;;;1.20;;
12445;SDS011;6287;50.984;7.022;2023-08-06T15:24:56;4.73;;;1.80;;
12445;SDS011;6287;50.984;7.022;2023-08-06T15:27:23;1.83;;;1.03;;
12445;SDS011;6287;50.984;7.022;2023-08-06T15:29:49;1.27;;;1.10;;